EVRA/RIX METAR and TAF weather

Enter ICAO airport designator
Station Type Date Time Source
EVRA METAR 2020/09/18 07:50 UTC NOAA

EVRA 180750Z 33014KT 300V360 9999 BKN031 13/06 Q1022 NOSIG


Station Type Date Time Source
EVRA Decoded METAR 2020/09/18 07:50 UTC NOAA

Riga International Airport, Latvia (EVRA) 56-55N 023-58E
Sep 18, 2020 - 03:50 AM EDT / 2020.09.18 0750 UTC
Wind: from the NNW (330 degrees) at 16 MPH (14 KT) (direction variable):0
Visibility: greater than 7 mile(s):0
Sky conditions: mostly cloudy
Temperature: 55 F (13 C)
Dew Point: 42 F (6 C)
Relative Humidity: 62%
Pressure (altimeter): 30.18 in. Hg (1022 hPa)
ob: EVRA 180750Z 33014KT 300V360 9999 BKN031 13/06 Q1022 NOSIG
cycle: 8

Station Type Date Time Source
EVRA TAF 2020/09/18 06:03 UTC NOAA

TAF TAF EVRA 180501Z 1806/1906 33014G27KT 9999 BKN030
TEMPO 1806/1808 32017G30KT
BECMG 1810/1812 33010KT
BECMG 1816/1818 24007KT CAVOK PROB40
TEMPO 1900/1905 0500 FG VV001

Example: see airport list